Marble, Colorado
Current Conditions -  °F | °C
As of 1:58 PM on Tuesday 21 Oct 2014 (Local Time) from K5SM Reporting Station
Drizzle Drizzle  
Wind Chill: 46°   Ceiling: 2200
Heat Index: 46°   Visibility: 10mi
Dew Point: 41°   Wind: 0mph
Humidity: 81%   Direction: NA
Pressure: 30.28"   Gusts: NA
Location:  39.2397°N, 107.215°W
Report Text: K5SM 211958Z AUTO 00000KT 10SM -DZ SCT015 BKN022 OVC039 08/05 A3028 RMK AO2
Loading
Personal Weather Stations






























Interactive Weather Map
Tropical Storm Tracking
New forecast layout! Learn more

10-Day Weather Forecast

Advertisements
Track Severe Weather on mobile